LIBNLGKR

Guest
Details From LIBN - Lecce
To LGKR - Ioannis Kapodistrias Intl
Flight Number -
Tags Routegen Generated
Created
Modified
Stats Distance 93 nm / 173 km
Max Altitude 200 ft / 61 m
Waypoints 10
Social Downloads 1
Likes 0
Share VATSIM

Download

Looking for another format? Having issues loading an existing format? Contact us
Advertisement - Login to hide

Notes

Departing runway 14 LIBN. Arriving runway 16 LGKR.

Route

LIBN +40.17_+018.19 +40.14_+018.25 +40.12_+018.33 +39.98_+018.93 +39.79_+019.72 +39.77_+019.79 +39.73_+019.85 +39.68_+019.89 LGKR

ID Type Via Altitude Latitude Longitude Leg Dist Tot Dist Heading (true) Name
O LIBN APT - 0 ft / 0 m 40.23128˚ 18.13993˚ - 0 nm - -
+40.17_+018.19 LATLON - 200 ft / 61 m 40.17137˚ 18.19306˚ 4 nm 4 nm 146° / 146° -
+40.14_+018.25 LATLON - 200 ft / 61 m 40.13743˚ 18.25442˚ 3 nm 7 nm 126° / 126° -
+40.12_+018.33 LATLON - 200 ft / 61 m 40.12157˚ 18.32724˚ 3 nm 11 nm 106° / 106° -
+39.98_+018.93 LATLON - 200 ft / 61 m 39.97951˚ 18.92540˚ 28 nm 40 nm 107° / 107° -
+39.79_+019.72 LATLON - 200 ft / 61 m 39.78770˚ 19.72197˚ 38 nm 78 nm 107° / 108° -
+39.77_+019.79 LATLON - 200 ft / 61 m 39.76906˚ 19.79328˚ 3 nm 82 nm 109° / 109° -
+39.73_+019.85 LATLON - 200 ft / 61 m 39.73279˚ 19.85197˚ 3 nm 85 nm 129° / 129° -
+39.68_+019.89 LATLON - 200 ft / 61 m 39.68327˚ 19.89096˚ 3 nm 88 nm 149° / 149° -
O LGKR APT - 0 ft / 0 m 39.61228˚ 19.90921˚ 4 nm 93 nm 169° / 169° -

Altitude Profile

Advertisement - Login to hide

LIBN

Details ICAO LIBN (LCC)
Name LECCE
Region Italy
Timezone Europe/Rome (UTC+1.0)
Stats Elevation 156 ft / 48 m (AMSL)
Location 40.238982° 18.133091°
Runways 1
Magnetic Variation 3.885° E

METAR

LIBN 130255Z 15011KT 9999 BKN015 15/14 Q1020 RMK BKN VIS MIN 9999 WIND THR14 16010KT WIND THR32 15010KT WHT

Decode

TAF

Not found

Departure Runways

ID Width Length Bearing (true) Bearing (mag) Surface Threshold Offset Overrun Length
14 197 ft / 60 m 6,786 ft / 2,068 m 145.87° 141.99° Asphalt 197 ft / 60 m 0 ft / 0 m
32 197 ft / 60 m 6,786 ft / 2,068 m 325.87° 321.99° Asphalt 448 ft / 137 m 0 ft / 0 m

LGKR

Details ICAO LGKR (CFU)
Name IOANNIS KAPODISTRIAS INTL
Region Greece
Timezone Europe/Athens (UTC+2.0)
Stats Elevation 6 ft / 2 m (AMSL)
Location 39.601779° 19.911908°
Runways 1
Magnetic Variation 4.098° E

METAR

LGKR 130320Z 19005KT 9999 FEW008 SCT018 15/14 Q1022 NOSIG

Decode

TAF

TAF LGKR 122300Z 1300/1324 14010KT 8000 FEW008 SCT015 BKN070 PROB40 TEMPO 1300/1324 5000 RA BR SCT008 BKN015 OVC070 BECMG 1313/1315 17010G20KT BECMG 1316/1318 21010KT PROB30 TEMPO 1318/1324 3000 TSRA BKN008 FEW018CB OVC070

Decode

Destination Runways

ID Width Length Bearing (true) Bearing (mag) Surface Threshold Offset Overrun Length
17 148 ft / 45 m 7,815 ft / 2,382 m 168.81° 164.71° Asphalt 1,348 ft / 411 m 0 ft / 0 m
35 148 ft / 45 m 7,815 ft / 2,382 m 348.81° 344.71° Asphalt 213 ft / 65 m 0 ft / 0 m